Time;durP1;ratioP1;P1;durP2;ratioP2;P2;SDS_P1;SDS_P2;PMS_P1;PMS_P2;Temp;Humidity;BMP_temperature;BMP_pressure;BME280_temperature;BME280_humidity;BME280_pressure;Samples;Min_cycle;Max_cycle;Signal;HPM_P1;HPM_P2
2021/03/13 00:01:10;;;;;;;6.32;0.98;;;;;;;;;;4998219;28;20048;-65
2021/03/13 00:03:36;;;;;;;8.25;1.38;;;;;;;;;;4994686;28;20038;-65
2021/03/13 00:06:01;;;;;;;3.08;0.80;;;;;;;;;;5008702;28;20411;-65
2021/03/13 00:08:26;;;;;;;11.18;1.42;;;;;;;;;;5001502;28;20033;-65
2021/03/13 00:10:52;;;;;;;8.07;1.00;;;;;;;;;;5002159;28;20077;-65
2021/03/13 00:13:17;;;;;;;9.00;1.52;;;;;;;;;;5008524;28;20026;-65
2021/03/13 00:15:43;;;;;;;7.30;1.40;;;;;;;;;;4996633;28;20039;-65
2021/03/13 00:18:08;;;;;;;4.60;1.20;;;;;;;;;;5008252;28;20034;-66
2021/03/13 00:20:34;;;;;;;8.15;1.00;;;;;;;;;;5002116;28;20076;-65
2021/03/13 00:23:00;;;;;;;4.70;0.90;;;;;;;;;;5000983;28;20057;-65
2021/03/13 00:25:27;;;;;;;6.90;1.35;;;;;;;;;;5008951;28;20474;-65
2021/03/13 00:27:52;;;;;;;7.30;1.45;;;;;;;;;;4996915;28;20017;-65
2021/03/13 00:30:26;;;;;;;7.72;1.30;;;;;;;;;;5006549;28;20406;-65
2021/03/13 00:32:52;;;;;;;8.82;1.00;;;;;;;;;;5003009;28;20371;-65
2021/03/13 00:35:18;;;;;;;6.18;0.80;;;;;;;;;;4998300;28;20031;-65
2021/03/13 00:37:44;;;;;;;8.52;1.10;;;;;;;;;;5009876;28;20042;-65
2021/03/13 00:40:11;;;;;;;8.02;0.88;;;;;;;;;;5007604;28;20026;-65
2021/03/13 00:42:36;;;;;;;7.82;1.45;;;;;;;;;;4993595;28;20493;-65
2021/03/13 00:45:03;;;;;;;11.20;1.30;;;;;;;;;;4981353;28;20126;-65
2021/03/13 00:47:28;;;;;;;11.98;1.45;;;;;;;;;;4995994;28;20026;-65
2021/03/13 00:49:53;;;;;;;11.52;1.40;;;;;;;;;;4983862;28;20134;-65
2021/03/13 00:52:19;;;;;;;9.35;1.65;;;;;;;;;;4977030;28;20046;-65
2021/03/13 00:54:44;;;;;;;13.27;1.67;;;;;;;;;;4976799;28;20026;-65
2021/03/13 00:57:10;;;;;;;6.32;1.30;;;;;;;;;;4976930;28;20035;-65
2021/03/13 00:59:35;;;;;;;15.13;1.63;;;;;;;;;;4976897;28;20380;-65
2021/03/13 01:02:00;;;;;;;16.38;2.22;;;;;;;;;;4988593;28;20019;-65
2021/03/13 01:04:25;;;;;;;21.42;3.10;;;;;;;;;;4995441;28;20041;-65
2021/03/13 01:06:51;;;;;;;11.77;2.35;;;;;;;;;;4996201;28;20061;-65
2021/03/13 01:09:16;;;;;;;12.38;2.88;;;;;;;;;;4996098;28;20069;-65
2021/03/13 01:11:42;;;;;;;14.07;2.30;;;;;;;;;;4995789;28;20072;-65
2021/03/13 01:14:07;;;;;;;11.68;1.50;;;;;;;;;;4996115;28;20065;-65
2021/03/13 01:16:32;;;;;;;8.45;1.70;;;;;;;;;;4995985;28;20459;-65
2021/03/13 01:18:57;;;;;;;13.73;1.73;;;;;;;;;;4996026;28;20050;-65
2021/03/13 01:21:23;;;;;;;25.67;2.90;;;;;;;;;;4995546;28;20076;-65
2021/03/13 01:23:48;;;;;;;20.63;2.35;;;;;;;;;;4995933;28;20022;-65
2021/03/13 01:26:13;;;;;;;10.77;1.55;;;;;;;;;;4983860;28;20149;-65
2021/03/13 01:28:38;;;;;;;18.20;3.10;;;;;;;;;;4982962;28;20372;-65
2021/03/13 01:31:04;;;;;;;22.08;3.75;;;;;;;;;;4995852;28;20022;-65
2021/03/13 01:33:29;;;;;;;15.75;2.13;;;;;;;;;;4983791;28;20101;-65
2021/03/13 01:35:55;;;;;;;21.95;3.63;;;;;;;;;;4975856;28;20043;-65
2021/03/13 01:38:20;;;;;;;20.75;2.40;;;;;;;;;;4976216;28;20101;-65
2021/03/13 01:40:45;;;;;;;16.80;2.55;;;;;;;;;;4981384;28;20037;-65
2021/03/13 01:43:10;;;;;;;16.98;2.65;;;;;;;;;;4983139;28;20039;-65
2021/03/13 01:45:36;;;;;;;17.75;2.30;;;;;;;;;;4995440;28;20033;-65
2021/03/13 01:48:01;;;;;;;16.10;2.65;;;;;;;;;;4995397;28;20037;-65
2021/03/13 01:50:26;;;;;;;13.98;1.95;;;;;;;;;;4976223;28;20074;-65
2021/03/13 01:52:52;;;;;;;17.98;2.90;;;;;;;;;;4975913;28;20069;-64
2021/03/13 01:55:17;;;;;;;16.70;2.13;;;;;;;;;;4991317;28;20563;-64
2021/03/13 01:57:43;;;;;;;10.25;1.63;;;;;;;;;;4995321;28;20125;-65
2021/03/13 02:00:10;;;;;;;19.00;3.03;;;;;;;;;;4980526;28;20081;-64
2021/03/13 02:02:36;;;;;;;13.85;2.65;;;;;;;;;;4975876;28;20117;-65
2021/03/13 02:05:04;;;;;;;21.70;3.80;;;;;;;;;;4975613;28;20499;-65
2021/03/13 02:07:48;;;;;;;18.50;3.08;;;;;;;;;;4987671;28;20057;-64
2021/03/13 02:10:13;;;;;;;14.15;2.17;;;;;;;;;;4994786;28;20093;-64
2021/03/13 02:12:50;;;;;;;27.00;3.45;;;;;;;;;;4995020;28;20042;-64
2021/03/13 02:15:47;;;;;;;21.52;2.42;;;;;;;;;;4994859;28;20072;-64
2021/03/13 02:18:35;;;;;;;17.73;2.80;;;;;;;;;;4982745;28;20105;-64
2021/03/13 02:21:06;;;;;;;13.90;2.63;;;;;;;;;;4994680;28;20065;-64
2021/03/13 02:23:35;;;;;;;18.10;3.35;;;;;;;;;;4994186;28;20475;-64
2021/03/13 02:26:09;;;;;;;19.73;2.50;;;;;;;;;;4994632;28;20032;-64
2021/03/13 02:28:46;;;;;;;16.20;2.58;;;;;;;;;;4994724;28;20046;-65
2021/03/13 02:31:12;;;;;;;20.98;2.90;;;;;;;;;;4994297;28;20056;-64
2021/03/13 02:33:39;;;;;;;14.90;2.38;;;;;;;;;;4994458;28;20049;-65
2021/03/13 02:36:13;;;;;;;22.42;3.05;;;;;;;;;;4994108;28;20471;-65
2021/03/13 02:38:57;;;;;;;19.42;2.83;;;;;;;;;;4994621;28;20113;-65
2021/03/13 02:41:24;;;;;;;20.67;3.20;;;;;;;;;;4994283;28;20105;-64
2021/03/13 02:43:53;;;;;;;19.83;2.42;;;;;;;;;;4994157;28;20046;-65
2021/03/13 02:46:19;;;;;;;16.23;3.60;;;;;;;;;;4994162;28;20122;-65
2021/03/13 02:48:49;;;;;;;17.73;3.05;;;;;;;;;;4994223;28;20096;-65
2021/03/13 02:51:15;;;;;;;17.05;3.30;;;;;;;;;;4994148;28;20029;-64
2021/03/13 02:53:41;;;;;;;18.15;3.88;;;;;;;;;;4987723;28;20038;-66
2021/03/13 02:56:07;;;;;;;13.95;3.05;;;;;;;;;;4978358;28;20039;-65
2021/03/13 02:58:34;;;;;;;21.02;2.97;;;;;;;;;;4994179;28;20065;-64
2021/03/13 03:01:00;;;;;;;22.58;2.63;;;;;;;;;;4993835;28;20037;-65
2021/03/13 03:03:25;;;;;;;25.08;2.30;;;;;;;;;;4977932;28;20023;-64
2021/03/13 03:05:53;;;;;;;17.02;4.00;;;;;;;;;;4974421;28;20062;-64
2021/03/13 03:08:18;;;;;;;24.90;3.67;;;;;;;;;;4975028;28;20066;-64
2021/03/13 03:10:44;;;;;;;16.58;2.40;;;;;;;;;;4993817;28;20518;-65
2021/03/13 03:13:10;;;;;;;21.58;3.15;;;;;;;;;;4993907;28;20387;-64
2021/03/13 03:15:35;;;;;;;16.50;4.22;;;;;;;;;;4993923;28;20151;-65
2021/03/13 03:18:03;;;;;;;18.15;2.53;;;;;;;;;;4993853;28;20161;-64
2021/03/13 03:20:30;;;;;;;26.90;3.38;;;;;;;;;;4993750;28;20030;-65
2021/03/13 03:22:55;;;;;;;23.55;3.25;;;;;;;;;;4993838;28;20041;-65
2021/03/13 03:25:21;;;;;;;13.77;2.58;;;;;;;;;;4993709;28;20473;-65
2021/03/13 03:27:53;;;;;;;16.02;3.20;;;;;;;;;;4993762;28;20522;-65
2021/03/13 03:30:24;;;;;;;21.05;2.78;;;;;;;;;;4993567;28;20043;-65
2021/03/13 03:32:50;;;;;;;20.42;3.17;;;;;;;;;;4993682;28;20022;-65
2021/03/13 03:35:16;;;;;;;22.95;3.65;;;;;;;;;;4993503;28;20038;-65
2021/03/13 03:37:41;;;;;;;21.52;3.30;;;;;;;;;;4993679;28;20022;-65
2021/03/13 03:40:07;;;;;;;16.92;2.25;;;;;;;;;;4993515;28;20373;-64
2021/03/13 03:42:33;;;;;;;13.02;2.38;;;;;;;;;;4993347;28;20055;-64
2021/03/13 03:45:00;;;;;;;24.17;2.78;;;;;;;;;;4992741;28;20054;-65
2021/03/13 03:47:25;;;;;;;16.60;3.50;;;;;;;;;;4991009;28;20031;-65
2021/03/13 03:49:51;;;;;;;17.13;2.38;;;;;;;;;;4980096;28;20135;-65
2021/03/13 03:52:17;;;;;;;17.25;2.72;;;;;;;;;;4974179;28;20436;-65
2021/03/13 03:54:44;;;;;;;10.60;2.00;;;;;;;;;;4991716;28;20062;-65
2021/03/13 03:57:09;;;;;;;22.67;3.17;;;;;;;;;;4993543;28;20026;-64
2021/03/13 03:59:35;;;;;;;13.95;2.42;;;;;;;;;;4993457;28;20011;-64
2021/03/13 04:02:01;;;;;;;13.90;2.63;;;;;;;;;;4979970;28;20495;-65
2021/03/13 04:04:28;;;;;;;17.88;3.35;;;;;;;;;;4974106;28;20479;-64
2021/03/13 04:06:53;;;;;;;16.48;2.22;;;;;;;;;;4973523;28;20026;-65
2021/03/13 04:09:20;;;;;;;21.50;2.03;;;;;;;;;;4973663;28;20046;-65
2021/03/13 04:11:46;;;;;;;15.18;2.22;;;;;;;;;;4979618;28;20030;-65
2021/03/13 04:14:11;;;;;;;19.70;3.25;;;;;;;;;;4993371;28;20489;-65
2021/03/13 04:16:37;;;;;;;13.60;2.00;;;;;;;;;;4993051;28;20062;-64
2021/03/13 04:19:03;;;;;;;10.35;2.20;;;;;;;;;;4991942;28;20123;-65
2021/03/13 04:21:28;;;;;;;16.83;1.90;;;;;;;;;;4973773;28;20459;-64
2021/03/13 04:23:54;;;;;;;15.02;2.20;;;;;;;;;;4973838;28;20041;-65
2021/03/13 04:26:20;;;;;;;10.57;1.95;;;;;;;;;;4973691;28;20038;-65
2021/03/13 04:28:45;;;;;;;14.27;1.55;;;;;;;;;;4973701;28;20058;-65
2021/03/13 04:31:11;;;;;;;20.52;2.28;;;;;;;;;;4973606;28;20058;-64
2021/03/13 04:33:37;;;;;;;19.38;2.72;;;;;;;;;;4973871;28;20039;-64
2021/03/13 04:36:04;;;;;;;12.70;2.15;;;;;;;;;;4973652;28;20074;-64
2021/03/13 04:38:29;;;;;;;9.52;1.58;;;;;;;;;;4973733;28;20057;-65
2021/03/13 04:40:55;;;;;;;13.60;2.40;;;;;;;;;;4973521;28;20471;-64
2021/03/13 04:43:21;;;;;;;11.48;2.17;;;;;;;;;;4973610;28;20043;-65
2021/03/13 04:45:47;;;;;;;9.55;2.30;;;;;;;;;;4973498;28;20026;-64
2021/03/13 04:48:13;;;;;;;13.65;3.00;;;;;;;;;;4976719;28;20122;-65
2021/03/13 04:50:41;;;;;;;11.40;2.05;;;;;;;;;;4977066;28;20014;-65
2021/03/13 04:53:06;;;;;;;11.02;1.52;;;;;;;;;;4976769;28;20472;-65
2021/03/13 04:55:32;;;;;;;8.55;2.20;;;;;;;;;;4976931;28;20042;-64
2021/03/13 04:57:57;;;;;;;16.48;2.50;;;;;;;;;;4976998;28;20039;-64
2021/03/13 05:00:23;;;;;;;16.52;2.75;;;;;;;;;;4976881;28;20033;-64
2021/03/13 05:02:48;;;;;;;15.85;2.17;;;;;;;;;;4976910;28;20495;-65
2021/03/13 05:05:14;;;;;;;11.15;1.95;;;;;;;;;;4976506;28;20484;-64
2021/03/13 05:07:39;;;;;;;9.43;2.17;;;;;;;;;;4976854;28;20113;-65
2021/03/13 05:10:05;;;;;;;14.02;1.95;;;;;;;;;;4976563;28;20381;-65
2021/03/13 05:12:30;;;;;;;10.35;1.73;;;;;;;;;;4989938;28;20062;-64
2021/03/13 05:14:56;;;;;;;11.85;1.77;;;;;;;;;;4995957;28;20112;-65
2021/03/13 05:17:21;;;;;;;22.98;3.70;;;;;;;;;;4996140;28;20039;-65
2021/03/13 05:19:46;;;;;;;15.13;2.17;;;;;;;;;;4995864;28;20432;-65
2021/03/13 05:22:11;;;;;;;18.02;2.20;;;;;;;;;;4996110;28;20455;-65
2021/03/13 05:24:37;;;;;;;15.70;2.10;;;;;;;;;;4995904;28;20038;-64
2021/03/13 05:27:02;;;;;;;17.92;2.88;;;;;;;;;;4995798;28;20014;-65
2021/03/13 05:29:27;;;;;;;14.90;2.22;;;;;;;;;;4995814;28;20486;-64
2021/03/13 05:31:53;;;;;;;14.55;1.83;;;;;;;;;;4995637;28;20443;-65
2021/03/13 05:34:18;;;;;;;13.68;2.20;;;;;;;;;;4995801;28;20021;-65
2021/03/13 05:36:43;;;;;;;15.63;2.80;;;;;;;;;;4995577;28;20481;-65
2021/03/13 05:39:09;;;;;;;13.43;2.03;;;;;;;;;;4994628;28;20940;-65
2021/03/13 05:41:36;;;;;;;15.63;2.78;;;;;;;;;;4995430;28;20076;-65
2021/03/13 05:44:02;;;;;;;16.55;2.53;;;;;;;;;;4987136;28;20043;-65
2021/03/13 05:46:34;;;;;;;7.43;1.77;;;;;;;;;;4981935;28;20111;-64
2021/03/13 05:49:01;;;;;;;12.45;2.47;;;;;;;;;;4995413;28;20109;-65
2021/03/13 05:51:27;;;;;;;12.15;1.80;;;;;;;;;;4995383;28;20119;-64
2021/03/13 05:53:52;;;;;;;21.92;2.75;;;;;;;;;;4976053;28;20464;-65
2021/03/13 05:56:17;;;;;;;19.35;2.67;;;;;;;;;;4975784;28;20033;-64
2021/03/13 05:58:42;;;;;;;14.10;2.63;;;;;;;;;;4974925;28;20117;-64
2021/03/13 06:01:08;;;;;;;11.10;1.83;;;;;;;;;;4975332;28;20490;-65
2021/03/13 06:03:33;;;;;;;15.85;2.45;;;;;;;;;;4992711;28;20025;-64
2021/03/13 06:05:59;;;;;;;9.80;2.65;;;;;;;;;;4995030;28;20704;-64
2021/03/13 06:08:24;;;;;;;16.15;2.55;;;;;;;;;;4995066;28;20038;-65
2021/03/13 06:10:50;;;;;;;19.33;2.67;;;;;;;;;;4994891;28;20030;-65
2021/03/13 06:13:15;;;;;;;13.73;1.67;;;;;;;;;;4995046;28;20039;-65
2021/03/13 06:15:41;;;;;;;12.57;1.80;;;;;;;;;;4994845;28;20069;-64
2021/03/13 06:18:06;;;;;;;9.70;1.75;;;;;;;;;;4994957;28;20080;-64
2021/03/13 06:20:32;;;;;;;9.48;1.40;;;;;;;;;;4994761;28;20105;-64
2021/03/13 06:23:00;;;;;;;9.93;1.65;;;;;;;;;;4994585;28;20048;-65
2021/03/13 06:25:26;;;;;;;5.38;1.20;;;;;;;;;;4975289;28;20046;-65
2021/03/13 06:28:00;;;;;;;5.45;1.45;;;;;;;;;;4975335;28;20034;-64
2021/03/13 06:30:52;;;;;;;7.82;1.58;;;;;;;;;;4975399;28;20039;-65
2021/03/13 06:33:20;;;;;;;7.70;1.00;;;;;;;;;;4974611;28;20047;-65
2021/03/13 06:35:46;;;;;;;4.22;0.80;;;;;;;;;;4975091;28;20046;-65
2021/03/13 06:38:18;;;;;;;4.53;1.02;;;;;;;;;;4987161;28;20021;-65
2021/03/13 06:40:44;;;;;;;6.13;0.95;;;;;;;;;;4985837;28;20033;-65
2021/03/13 06:43:18;;;;;;;9.07;2.03;;;;;;;;;;4994178;28;20578;-65
2021/03/13 06:45:57;;;;;;;4.45;0.70;;;;;;;;;;4991932;28;20184;-64
2021/03/13 06:48:29;;;;;;;7.78;1.05;;;;;;;;;;4974872;28;20437;-65
2021/03/13 06:50:55;;;;;;;8.98;2.75;;;;;;;;;;4974773;28;20031;-65
2021/03/13 06:53:20;;;;;;;6.82;1.67;;;;;;;;;;4976037;28;20046;-64
2021/03/13 06:55:46;;;;;;;3.50;0.50;;;;;;;;;;4994230;28;20357;-65
2021/03/13 06:58:13;;;;;;;4.40;0.60;;;;;;;;;;4994196;28;20026;-65
2021/03/13 07:00:39;;;;;;;3.08;0.65;;;;;;;;;;4994124;28;20356;-65
2021/03/13 07:03:05;;;;;;;4.65;0.70;;;;;;;;;;4994165;28;20046;-65
2021/03/13 07:05:30;;;;;;;3.72;0.90;;;;;;;;;;4992789;28;20383;-65
2021/03/13 07:07:55;;;;;;;6.18;1.00;;;;;;;;;;4994022;28;20014;-65
2021/03/13 07:10:25;;;;;;;4.97;1.00;;;;;;;;;;4993706;28;20455;-64
2021/03/13 07:12:50;;;;;;;4.32;0.63;;;;;;;;;;4993802;28;20034;-64
2021/03/13 07:15:19;;;;;;;8.27;1.30;;;;;;;;;;4993122;28;20030;-65
2021/03/13 07:17:51;;;;;;;5.65;1.88;;;;;;;;;;4993898;28;20037;-65
2021/03/13 07:20:17;;;;;;;4.78;0.82;;;;;;;;;;4993466;28;20527;-65
2021/03/13 07:22:42;;;;;;;5.60;1.00;;;;;;;;;;4991695;28;20069;-65
2021/03/13 07:25:09;;;;;;;6.07;1.00;;;;;;;;;;4986380;28;20022;-65
2021/03/13 07:27:40;;;;;;;4.63;1.02;;;;;;;;;;4989708;28;20502;-65
2021/03/13 07:30:06;;;;;;;3.55;0.93;;;;;;;;;;4973851;28;20396;-66
2021/03/13 07:32:32;;;;;;;3.17;0.80;;;;;;;;;;4974418;28;20070;-65
2021/03/13 07:35:02;;;;;;;10.23;0.90;;;;;;;;;;4973341;28;20085;-66
2021/03/13 07:37:28;;;;;;;3.15;0.70;;;;;;;;;;4974284;28;20019;-65
2021/03/13 07:39:54;;;;;;;5.95;0.77;;;;;;;;;;4974614;28;20030;-65
2021/03/13 07:42:20;;;;;;;4.63;0.93;;;;;;;;;;4974128;28;20098;-66
2021/03/13 07:44:46;;;;;;;12.38;0.90;;;;;;;;;;4974276;28;20047;-65
2021/03/13 07:47:15;;;;;;;6.20;1.27;;;;;;;;;;4974069;28;20074;-65
2021/03/13 07:49:40;;;;;;;4.55;0.80;;;;;;;;;;4973875;28;20602;-65
2021/03/13 07:52:07;;;;;;;6.95;0.98;;;;;;;;;;4973681;28;20106;-65
2021/03/13 07:54:35;;;;;;;3.60;0.70;;;;;;;;;;4974228;28;20396;-65
2021/03/13 07:57:01;;;;;;;4.50;0.73;;;;;;;;;;4981632;28;20039;-66
2021/03/13 07:59:45;;;;;;;4.15;0.70;;;;;;;;;;4982638;28;20030;-65
2021/03/13 08:02:28;;;;;;;2.72;0.95;;;;;;;;;;4973902;28;20035;-65
2021/03/13 08:04:56;;;;;;;6.55;1.55;;;;;;;;;;4982888;28;20041;-65
2021/03/13 08:07:21;;;;;;;2.90;0.60;;;;;;;;;;4988428;28;20038;-66
2021/03/13 08:09:46;;;;;;;2.22;0.68;;;;;;;;;;4990600;28;20529;-66
2021/03/13 08:12:12;;;;;;;1.70;0.55;;;;;;;;;;4991034;28;20026;-65
2021/03/13 08:14:37;;;;;;;4.63;0.98;;;;;;;;;;4990727;28;20039;-66
2021/03/13 08:17:07;;;;;;;3.58;0.57;;;;;;;;;;4990032;28;20479;-65
2021/03/13 08:19:34;;;;;;;4.32;1.02;;;;;;;;;;4983825;28;20046;-66
2021/03/13 08:22:11;;;;;;;2.05;0.73;;;;;;;;;;4984954;28;20418;-66
2021/03/13 08:24:41;;;;;;;4.95;0.80;;;;;;;;;;4991225;28;20046;-66
2021/03/13 08:27:07;;;;;;;2.80;0.77;;;;;;;;;;4992150;28;20033;-66
2021/03/13 08:29:49;;;;;;;5.72;0.95;;;;;;;;;;4993328;28;20054;-66
2021/03/13 08:32:14;;;;;;;7.07;0.80;;;;;;;;;;4993571;28;20031;-65
2021/03/13 08:34:41;;;;;;;2.88;0.55;;;;;;;;;;4993630;28;20041;-66
2021/03/13 08:37:17;;;;;;;7.28;0.70;;;;;;;;;;4992663;28;20026;-66
2021/03/13 08:39:42;;;;;;;5.45;0.95;;;;;;;;;;4993659;28;20034;-66
2021/03/13 08:42:07;;;;;;;3.53;0.80;;;;;;;;;;4993732;28;20039;-66
2021/03/13 08:44:34;;;;;;;7.70;1.25;;;;;;;;;;4993472;28;20049;-66
2021/03/13 08:47:00;;;;;;;7.15;1.02;;;;;;;;;;4993342;28;20054;-66
2021/03/13 08:49:28;;;;;;;5.25;0.98;;;;;;;;;;4993763;28;20069;-66
2021/03/13 08:52:03;;;;;;;4.75;0.85;;;;;;;;;;4994288;28;20018;-66
2021/03/13 08:54:37;;;;;;;5.33;0.90;;;;;;;;;;4994023;28;20073;-67
2021/03/13 08:57:12;;;;;;;3.58;1.45;;;;;;;;;;5000087;28;20390;-66
2021/03/13 08:59:39;;;;;;;7.72;1.20;;;;;;;;;;5006529;28;20027;-66
2021/03/13 09:02:06;;;;;;;7.28;1.30;;;;;;;;;;5006059;28;20034;-67
2021/03/13 09:04:32;;;;;;;6.93;1.08;;;;;;;;;;4999801;28;20073;-66
2021/03/13 09:06:57;;;;;;;7.50;1.02;;;;;;;;;;4994894;28;20081;-66
2021/03/13 09:09:24;;;;;;;6.80;1.50;;;;;;;;;;4995468;28;20430;-66
2021/03/13 09:11:57;;;;;;;5.25;1.25;;;;;;;;;;4994658;28;20085;-66
2021/03/13 09:14:22;;;;;;;3.05;1.02;;;;;;;;;;4996200;28;20023;-66
2021/03/13 09:16:47;;;;;;;5.57;1.30;;;;;;;;;;4995630;28;20038;-66
2021/03/13 09:19:14;;;;;;;6.35;1.13;;;;;;;;;;4995309;28;20022;-66
2021/03/13 09:21:47;;;;;;;4.30;1.25;;;;;;;;;;4978612;28;20034;-66
2021/03/13 09:24:32;;;;;;;4.93;1.35;;;;;;;;;;4985105;28;20030;-66
2021/03/13 09:26:59;;;;;;;7.20;1.60;;;;;;;;;;4975648;28;20066;-65
2021/03/13 09:29:27;;;;;;;4.57;1.20;;;;;;;;;;4975571;28;20053;-65
2021/03/13 09:31:59;;;;;;;5.55;1.15;;;;;;;;;;4976370;28;20460;-67
2021/03/13 09:34:24;;;;;;;1.85;0.88;;;;;;;;;;4977589;28;20031;-67
2021/03/13 09:36:50;;;;;;;4.35;1.17;;;;;;;;;;4983983;28;20042;-67
2021/03/13 09:39:22;;;;;;;4.82;1.23;;;;;;;;;;4995617;28;20050;-67
2021/03/13 09:42:06;;;;;;;4.97;1.02;;;;;;;;;;4995156;28;20058;-67
2021/03/13 09:44:33;;;;;;;5.95;1.30;;;;;;;;;;4994547;28;20391;-66
2021/03/13 09:46:58;;;;;;;6.78;1.27;;;;;;;;;;4994511;28;20042;-66
2021/03/13 09:49:24;;;;;;;4.65;1.10;;;;;;;;;;4995041;28;20463;-67
2021/03/13 09:51:49;;;;;;;6.53;1.05;;;;;;;;;;4994507;28;20030;-67
2021/03/13 09:54:18;;;;;;;4.03;1.35;;;;;;;;;;4994783;28;20471;-67
2021/03/13 09:56:43;;;;;;;5.05;1.38;;;;;;;;;;4994999;28;20034;-67
2021/03/13 09:59:09;;;;;;;5.75;1.05;;;;;;;;;;4994853;28;20490;-67
2021/03/13 10:01:35;;;;;;;6.38;1.50;;;;;;;;;;4994845;28;20038;-67
2021/03/13 10:04:00;;;;;;;8.02;1.52;;;;;;;;;;4994819;28;20042;-67
2021/03/13 10:06:26;;;;;;;6.53;1.48;;;;;;;;;;4993854;28;20110;-66
2021/03/13 10:08:57;;;;;;;8.50;1.60;;;;;;;;;;4994993;28;20491;-66
2021/03/13 10:11:22;;;;;;;7.03;1.20;;;;;;;;;;4994934;28;20023;-66
2021/03/13 10:13:51;;;;;;;6.57;1.88;;;;;;;;;;4995058;28;20077;-66
2021/03/13 10:16:17;;;;;;;9.60;1.60;;;;;;;;;;4994948;28;20036;-66
2021/03/13 10:18:42;;;;;;;6.47;1.50;;;;;;;;;;4994782;28;20034;-66
2021/03/13 10:21:08;;;;;;;7.25;1.20;;;;;;;;;;4994428;28;20499;-66
2021/03/13 10:23:37;;;;;;;2.90;1.33;;;;;;;;;;4994967;28;20034;-66
2021/03/13 10:26:06;;;;;;;5.00;0.98;;;;;;;;;;4994694;28;20030;-66
2021/03/13 10:28:36;;;;;;;6.38;1.63;;;;;;;;;;4994791;28;20073;-66
2021/03/13 10:31:10;;;;;;;6.60;1.27;;;;;;;;;;4994329;28;20031;-66
2021/03/13 10:33:35;;;;;;;4.30;0.80;;;;;;;;;;4994829;28;20036;-65
2021/03/13 10:36:01;;;;;;;6.20;1.15;;;;;;;;;;4994480;28;20438;-65
2021/03/13 10:38:26;;;;;;;5.10;1.15;;;;;;;;;;4994667;28;20546;-65
2021/03/13 10:40:52;;;;;;;5.10;1.17;;;;;;;;;;4994102;28;20045;-66
2021/03/13 10:43:21;;;;;;;7.03;2.10;;;;;;;;;;4994300;28;20062;-65
2021/03/13 10:46:00;;;;;;;2.53;0.65;;;;;;;;;;4993524;28;20045;-66
2021/03/13 10:48:26;;;;;;;5.03;0.75;;;;;;;;;;4994447;28;20035;-66
2021/03/13 10:50:52;;;;;;;4.25;0.88;;;;;;;;;;4993254;28;20472;-66
2021/03/13 10:53:26;;;;;;;5.28;1.48;;;;;;;;;;4994312;28;20038;-65
2021/03/13 10:55:53;;;;;;;3.95;1.10;;;;;;;;;;4993919;28;20026;-65
2021/03/13 10:58:26;;;;;;;4.93;1.05;;;;;;;;;;4993942;28;20113;-65
2021/03/13 11:00:51;;;;;;;4.07;1.02;;;;;;;;;;4993485;28;20060;-65
2021/03/13 11:03:16;;;;;;;7.20;1.27;;;;;;;;;;4993863;28;20105;-65
2021/03/13 11:05:42;;;;;;;6.47;1.48;;;;;;;;;;4993565;28;20088;-66
2021/03/13 11:08:09;;;;;;;6.38;1.45;;;;;;;;;;4994058;28;20030;-65
2021/03/13 11:10:35;;;;;;;5.95;1.48;;;;;;;;;;4993748;28;20045;-65
2021/03/13 11:13:00;;;;;;;7.57;2.15;;;;;;;;;;4993420;28;20399;-66
2021/03/13 11:15:25;;;;;;;4.97;0.90;;;;;;;;;;4993847;28;20033;-65
2021/03/13 11:17:51;;;;;;;4.25;1.33;;;;;;;;;;4993645;28;20100;-65
2021/03/13 11:20:16;;;;;;;4.32;0.77;;;;;;;;;;4993371;28;20045;-66
2021/03/13 11:22:41;;;;;;;6.07;1.23;;;;;;;;;;4992379;28;20053;-65
2021/03/13 11:25:07;;;;;;;10.10;1.50;;;;;;;;;;4991703;28;20062;-65
2021/03/13 11:27:32;;;;;;;5.10;1.10;;;;;;;;;;4992833;28;20053;-66
2021/03/13 11:29:57;;;;;;;3.22;0.98;;;;;;;;;;4992530;28;20531;-65
2021/03/13 11:32:22;;;;;;;6.22;1.00;;;;;;;;;;4992091;28;20034;-65
2021/03/13 11:34:48;;;;;;;10.23;1.70;;;;;;;;;;4992401;28;20069;-66
2021/03/13 11:37:13;;;;;;;8.07;1.58;;;;;;;;;;4992642;28;20026;-66
2021/03/13 11:39:38;;;;;;;7.13;1.35;;;;;;;;;;4992931;28;20482;-65
2021/03/13 11:42:04;;;;;;;6.13;1.13;;;;;;;;;;4991930;28;20030;-65
2021/03/13 11:44:29;;;;;;;4.15;1.00;;;;;;;;;;4991861;28;20066;-65
2021/03/13 11:46:54;;;;;;;5.88;1.00;;;;;;;;;;4992774;28;20022;-65
2021/03/13 11:49:19;;;;;;;10.15;1.98;;;;;;;;;;4992531;28;20382;-65
2021/03/13 11:51:45;;;;;;;8.27;1.48;;;;;;;;;;4992820;28;20057;-65
2021/03/13 11:54:10;;;;;;;11.00;1.80;;;;;;;;;;4992462;28;20034;-66
2021/03/13 11:56:35;;;;;;;8.13;1.20;;;;;;;;;;4990507;28;20038;-66
2021/03/13 11:59:00;;;;;;;10.95;1.58;;;;;;;;;;4995205;28;20639;-65
2021/03/13 12:01:26;;;;;;;9.52;1.88;;;;;;;;;;4995488;28;20022;-66
2021/03/13 12:03:51;;;;;;;6.68;1.33;;;;;;;;;;4995307;28;20376;-66
2021/03/13 12:06:17;;;;;;;10.75;1.23;;;;;;;;;;4996300;28;20026;-65
2021/03/13 12:08:42;;;;;;;9.00;1.20;;;;;;;;;;4997094;28;20034;-65
2021/03/13 12:11:07;;;;;;;9.95;1.23;;;;;;;;;;4989953;28;20467;-66
2021/03/13 12:13:32;;;;;;;4.38;1.60;;;;;;;;;;4996540;28;20379;-65
2021/03/13 12:15:57;;;;;;;7.10;1.40;;;;;;;;;;4996832;28;20030;-65
2021/03/13 12:18:23;;;;;;;6.68;1.80;;;;;;;;;;4996780;28;20490;-65
2021/03/13 12:20:48;;;;;;;7.20;1.63;;;;;;;;;;4996389;28;20018;-65
2021/03/13 12:23:13;;;;;;;9.60;1.67;;;;;;;;;;4997103;28;20033;-66
2021/03/13 12:25:39;;;;;;;8.65;1.40;;;;;;;;;;4996822;28;20074;-65
2021/03/13 12:28:04;;;;;;;9.43;1.40;;;;;;;;;;4996689;28;20026;-65
2021/03/13 12:30:29;;;;;;;8.55;1.40;;;;;;;;;;4996764;28;20042;-66
2021/03/13 12:32:56;;;;;;;6.10;1.20;;;;;;;;;;4996895;28;20034;-65
2021/03/13 12:35:21;;;;;;;4.20;1.00;;;;;;;;;;4996924;28;20050;-65
2021/03/13 12:37:47;;;;;;;4.40;1.17;;;;;;;;;;4996691;28;20030;-65
2021/03/13 12:40:12;;;;;;;3.78;1.02;;;;;;;;;;4996735;28;20037;-65
2021/03/13 12:42:38;;;;;;;5.75;1.15;;;;;;;;;;4996448;28;20076;-65
2021/03/13 12:45:04;;;;;;;6.22;1.00;;;;;;;;;;4996099;28;20407;-65
2021/03/13 12:47:29;;;;;;;7.00;1.20;;;;;;;;;;4996596;28;20035;-65
2021/03/13 12:49:54;;;;;;;4.70;0.98;;;;;;;;;;4996209;28;20038;-65
2021/03/13 12:52:20;;;;;;;6.50;1.13;;;;;;;;;;4996796;28;20026;-65
2021/03/13 12:54:45;;;;;;;4.32;1.33;;;;;;;;;;4996485;28;20553;-65
2021/03/13 12:57:10;;;;;;;7.35;1.30;;;;;;;;;;4990336;28;20027;-65
2021/03/13 12:59:35;;;;;;;4.65;1.35;;;;;;;;;;4991004;28;20034;-65
2021/03/13 13:02:01;;;;;;;5.75;1.20;;;;;;;;;;4981289;28;20054;-65
2021/03/13 13:04:26;;;;;;;6.40;0.82;;;;;;;;;;4987400;28;20375;-65
2021/03/13 13:06:51;;;;;;;6.25;1.05;;;;;;;;;;4976172;28;20031;-65
2021/03/13 13:09:17;;;;;;;10.55;1.27;;;;;;;;;;4988786;28;20041;-66
2021/03/13 13:11:42;;;;;;;7.57;1.20;;;;;;;;;;4996130;28;20493;-65
2021/03/13 13:14:07;;;;;;;4.90;0.88;;;;;;;;;;4996064;28;20519;-65
2021/03/13 13:16:33;;;;;;;5.90;1.48;;;;;;;;;;4986738;28;20450;-65
2021/03/13 13:18:58;;;;;;;8.85;0.85;;;;;;;;;;5006002;28;20463;-66
2021/03/13 13:21:24;;;;;;;3.63;0.80;;;;;;;;;;5012315;28;20116;-66
2021/03/13 13:23:49;;;;;;;4.07;0.70;;;;;;;;;;4986625;28;20112;-65
2021/03/13 13:26:14;;;;;;;6.70;0.85;;;;;;;;;;4997381;28;20053;-65
2021/03/13 13:28:39;;;;;;;8.20;1.90;;;;;;;;;;5001170;28;20088;-65
2021/03/13 13:31:05;;;;;;;5.55;1.00;;;;;;;;;;5007586;28;20044;-65
2021/03/13 13:33:30;;;;;;;4.70;0.95;;;;;;;;;;4991288;28;20022;-65
2021/03/13 13:35:56;;;;;;;5.22;0.63;;;;;;;;;;4998689;28;20486;-66
2021/03/13 13:38:21;;;;;;;2.75;0.80;;;;;;;;;;4993201;28;20435;-65
2021/03/13 13:40:47;;;;;;;6.50;1.33;;;;;;;;;;4992481;28;20034;-66
2021/03/13 13:43:12;;;;;;;4.05;1.00;;;;;;;;;;4994192;28;20074;-65
2021/03/13 13:45:38;;;;;;;3.83;0.82;;;;;;;;;;5003106;28;20780;-65
2021/03/13 13:48:04;;;;;;;5.57;0.90;;;;;;;;;;5005475;28;20068;-67
2021/03/13 13:50:29;;;;;;;4.10;0.80;;;;;;;;;;4998023;28;20050;-66
2021/03/13 13:52:55;;;;;;;5.22;0.98;;;;;;;;;;5003763;28;20033;-65
2021/03/13 13:55:20;;;;;;;5.30;0.82;;;;;;;;;;4992447;28;20547;-65
2021/03/13 13:57:46;;;;;;;3.88;1.13;;;;;;;;;;4997774;28;20033;-66
2021/03/13 14:00:13;;;;;;;6.35;0.68;;;;;;;;;;5000338;28;20787;-65
2021/03/13 14:02:38;;;;;;;6.50;1.23;;;;;;;;;;5001430;28;20033;-65
2021/03/13 14:05:05;;;;;;;7.05;1.30;;;;;;;;;;4992948;28;20044;-65
2021/03/13 14:07:30;;;;;;;4.80;1.10;;;;;;;;;;5005272;28;20108;-65
2021/03/13 14:09:55;;;;;;;3.92;1.00;;;;;;;;;;4988863;28;20467;-66
2021/03/13 14:12:20;;;;;;;5.00;1.00;;;;;;;;;;4998756;28;20045;-65
2021/03/13 14:14:46;;;;;;;8.32;1.27;;;;;;;;;;4995146;28;20046;-66
2021/03/13 14:17:11;;;;;;;8.35;1.08;;;;;;;;;;5005171;28;20056;-66
2021/03/13 14:19:36;;;;;;;8.32;1.20;;;;;;;;;;4992604;28;20040;-65
2021/03/13 14:22:02;;;;;;;5.25;1.40;;;;;;;;;;5001530;28;20038;-65
2021/03/13 14:24:27;;;;;;;4.68;1.20;;;;;;;;;;4999147;28;20033;-65
2021/03/13 14:26:52;;;;;;;7.95;1.50;;;;;;;;;;4993869;28;20442;-65
2021/03/13 14:29:21;;;;;;;4.15;1.10;;;;;;;;;;5004903;28;20046;-65
2021/03/13 14:31:46;;;;;;;4.03;0.93;;;;;;;;;;4994629;28;20101;-65
2021/03/13 14:34:11;;;;;;;2.47;0.47;;;;;;;;;;5001928;28;20113;-65
2021/03/13 14:36:37;;;;;;;7.90;1.20;;;;;;;;;;4989409;28;20085;-65